Time;durP1;ratioP1;P1;durP2;ratioP2;P2;SDS_P1;SDS_P2;PMS_P1;PMS_P2;Temp;Humidity;BMP_temperature;BMP_pressure;BME280_temperature;BME280_humidity;BME280_pressure;Samples;Min_cycle;Max_cycle;Signal;HPM_P1;HPM_P2
2021/10/04 00:01:14;;;;;;;1.93;0.60;;;;;;;;;;5118470;27;20678;-62
2021/10/04 00:03:43;;;;;;;0.93;0.60;;;;;;;;;;5118546;28;20228;-62
2021/10/04 00:06:12;;;;;;;0.90;0.80;;;;;;;;;;5118493;28;20200;-62
2021/10/04 00:08:40;;;;;;;0.53;0.43;;;;;;;;;;5118344;28;20213;-62
2021/10/04 00:11:08;;;;;;;0.97;0.30;;;;;;;;;;5118371;28;20285;-62
2021/10/04 00:13:35;;;;;;;0.67;0.67;;;;;;;;;;5118281;28;20211;-62
2021/10/04 00:16:04;;;;;;;0.67;0.67;;;;;;;;;;5117367;28;20227;-62
2021/10/04 00:18:32;;;;;;;0.90;0.90;;;;;;;;;;5117973;28;20205;-62
2021/10/04 00:21:01;;;;;;;1.30;0.60;;;;;;;;;;5118022;28;20205;-62
2021/10/04 00:23:30;;;;;;;1.43;0.70;;;;;;;;;;5118086;28;20664;-62
2021/10/04 00:25:58;;;;;;;0.40;0.40;;;;;;;;;;5117782;28;20305;-62
2021/10/04 00:28:25;;;;;;;1.03;0.53;;;;;;;;;;5117890;28;20205;-62
2021/10/04 00:30:53;;;;;;;1.30;0.50;;;;;;;;;;5117431;28;20564;-62
2021/10/04 00:33:21;;;;;;;0.53;0.40;;;;;;;;;;5117789;28;20287;-62
2021/10/04 00:35:49;;;;;;;2.53;0.83;;;;;;;;;;5117655;28;20337;-62
2021/10/04 00:38:19;;;;;;;1.73;0.67;;;;;;;;;;5118023;28;20205;-62
2021/10/04 00:40:47;;;;;;;0.60;0.60;;;;;;;;;;5118312;28;20215;-62
2021/10/04 00:43:15;;;;;;;0.97;0.73;;;;;;;;;;5118092;28;20209;-62
2021/10/04 00:45:42;;;;;;;0.83;0.83;;;;;;;;;;5119633;28;20706;-62
2021/10/04 00:48:11;;;;;;;1.13;0.60;;;;;;;;;;5121937;28;20669;-62
2021/10/04 00:50:39;;;;;;;0.50;0.50;;;;;;;;;;5121487;27;20239;-62
2021/10/04 00:53:06;;;;;;;0.83;0.60;;;;;;;;;;5121509;28;20216;-62
2021/10/04 00:55:36;;;;;;;0.67;0.67;;;;;;;;;;5121765;28;20256;-62
2021/10/04 00:58:05;;;;;;;0.50;0.50;;;;;;;;;;5121559;28;20205;-62
2021/10/04 01:00:33;;;;;;;1.47;0.50;;;;;;;;;;5121290;28;20212;-62
2021/10/04 01:03:01;;;;;;;1.37;0.47;;;;;;;;;;5121548;28;20253;-62
2021/10/04 01:05:33;;;;;;;1.63;0.57;;;;;;;;;;5121348;28;20658;-62
2021/10/04 01:08:01;;;;;;;1.03;0.57;;;;;;;;;;5121345;28;20735;-62
2021/10/04 01:10:30;;;;;;;0.97;0.47;;;;;;;;;;5121420;28;20664;-62
2021/10/04 01:12:59;;;;;;;0.87;0.40;;;;;;;;;;5121261;28;20205;-61
2021/10/04 01:15:27;;;;;;;0.50;0.50;;;;;;;;;;5120937;28;20228;-62
2021/10/04 01:17:55;;;;;;;2.13;0.33;;;;;;;;;;5121318;28;20227;-62
2021/10/04 01:20:25;;;;;;;0.73;0.40;;;;;;;;;;5121110;28;20672;-62
2021/10/04 01:22:54;;;;;;;0.40;0.30;;;;;;;;;;5121299;28;20201;-61
2021/10/04 01:25:22;;;;;;;0.47;0.47;;;;;;;;;;5121207;28;20229;-62
2021/10/04 01:27:51;;;;;;;0.50;0.50;;;;;;;;;;5121102;28;20193;-62
2021/10/04 01:30:20;;;;;;;0.40;0.40;;;;;;;;;;5120972;28;20216;-62
2021/10/04 01:32:49;;;;;;;0.67;0.30;;;;;;;;;;5120674;28;20204;-62
2021/10/04 01:35:17;;;;;;;0.37;0.37;;;;;;;;;;5120682;28;20242;-62
2021/10/04 01:37:47;;;;;;;0.50;0.50;;;;;;;;;;5120778;28;20225;-62
2021/10/04 01:40:15;;;;;;;0.43;0.30;;;;;;;;;;5121097;28;20209;-62
2021/10/04 01:42:44;;;;;;;0.60;0.60;;;;;;;;;;5120837;28;20209;-62
2021/10/04 01:45:13;;;;;;;0.77;0.53;;;;;;;;;;5120517;28;20231;-62
2021/10/04 01:47:41;;;;;;;0.50;0.50;;;;;;;;;;5120572;28;20659;-62
2021/10/04 01:50:10;;;;;;;0.50;0.50;;;;;;;;;;5120211;28;20232;-63
2021/10/04 01:52:38;;;;;;;0.97;0.60;;;;;;;;;;5120818;27;20286;-62
2021/10/04 01:55:08;;;;;;;0.80;0.50;;;;;;;;;;5120447;28;20398;-62
2021/10/04 01:57:36;;;;;;;0.53;0.50;;;;;;;;;;5119930;28;20594;-63
2021/10/04 02:00:05;;;;;;;0.83;0.40;;;;;;;;;;5120504;28;20205;-62
2021/10/04 02:02:33;;;;;;;0.77;0.33;;;;;;;;;;5120510;28;20667;-62
2021/10/04 02:05:01;;;;;;;0.57;0.50;;;;;;;;;;5120335;28;20256;-63
2021/10/04 02:07:29;;;;;;;0.40;0.40;;;;;;;;;;5120473;28;20201;-62
2021/10/04 02:09:57;;;;;;;0.30;0.30;;;;;;;;;;5120458;28;20208;-61
2021/10/04 02:12:27;;;;;;;0.20;0.17;;;;;;;;;;5120333;28;20574;-61
2021/10/04 02:14:55;;;;;;;0.60;0.40;;;;;;;;;;5120049;28;20224;-60
2021/10/04 02:17:23;;;;;;;0.37;0.37;;;;;;;;;;5120160;27;20221;-61
2021/10/04 02:19:51;;;;;;;0.80;0.50;;;;;;;;;;5120526;27;20204;-62
2021/10/04 02:22:19;;;;;;;2.07;0.47;;;;;;;;;;5120090;28;20289;-62
2021/10/04 02:24:47;;;;;;;1.00;0.50;;;;;;;;;;5119766;27;20824;-62
2021/10/04 02:27:15;;;;;;;0.47;0.47;;;;;;;;;;5119811;28;20212;-62
2021/10/04 02:29:44;;;;;;;0.83;0.50;;;;;;;;;;5119423;28;20201;-62
2021/10/04 02:32:12;;;;;;;0.73;0.60;;;;;;;;;;5120003;28;20201;-62
2021/10/04 02:34:40;;;;;;;1.20;0.70;;;;;;;;;;5119911;28;20592;-62
2021/10/04 02:37:08;;;;;;;1.20;0.60;;;;;;;;;;5119988;28;20232;-62
2021/10/04 02:39:36;;;;;;;0.77;0.40;;;;;;;;;;5120107;28;20207;-62
2021/10/04 02:42:04;;;;;;;0.50;0.50;;;;;;;;;;5119614;27;20204;-62
2021/10/04 02:44:32;;;;;;;1.30;0.50;;;;;;;;;;5119101;28;20307;-63
2021/10/04 02:47:01;;;;;;;0.40;0.40;;;;;;;;;;5119260;28;20670;-62
2021/10/04 02:49:29;;;;;;;1.17;0.60;;;;;;;;;;5119387;28;20617;-60
2021/10/04 02:51:57;;;;;;;1.83;0.87;;;;;;;;;;5119519;27;20235;-61
2021/10/04 02:54:25;;;;;;;0.80;0.60;;;;;;;;;;5119606;28;20231;-63
2021/10/04 02:56:53;;;;;;;0.73;0.53;;;;;;;;;;5119112;28;20204;-61
2021/10/04 02:59:21;;;;;;;0.90;0.67;;;;;;;;;;5119098;28;20204;-61
2021/10/04 03:01:49;;;;;;;0.50;0.50;;;;;;;;;;5119253;28;20209;-63
2021/10/04 03:04:19;;;;;;;0.50;0.50;;;;;;;;;;5130631;27;20228;-62
2021/10/04 03:06:46;;;;;;;0.87;0.63;;;;;;;;;;5139622;27;20205;-63
2021/10/04 03:09:14;;;;;;;0.47;0.43;;;;;;;;;;5138813;27;20279;-62
2021/10/04 03:11:42;;;;;;;1.13;0.60;;;;;;;;;;5139869;27;20283;-62
2021/10/04 03:14:10;;;;;;;0.20;0.20;;;;;;;;;;5139650;27;20227;-62
2021/10/04 03:16:38;;;;;;;0.43;0.43;;;;;;;;;;5140079;27;20203;-62
2021/10/04 03:19:06;;;;;;;0.30;0.30;;;;;;;;;;5139610;27;20220;-62
2021/10/04 03:21:36;;;;;;;0.40;0.40;;;;;;;;;;5139658;27;20204;-62
2021/10/04 03:24:04;;;;;;;0.40;0.40;;;;;;;;;;5137933;27;20228;-62
2021/10/04 03:26:32;;;;;;;0.30;0.30;;;;;;;;;;5118444;28;20557;-62
2021/10/04 03:29:00;;;;;;;0.70;0.70;;;;;;;;;;5118806;28;20211;-62
2021/10/04 03:31:28;;;;;;;0.50;0.50;;;;;;;;;;5118787;28;20211;-62
2021/10/04 03:33:56;;;;;;;0.50;0.50;;;;;;;;;;5118306;28;20220;-62
2021/10/04 03:36:24;;;;;;;1.67;0.57;;;;;;;;;;5118586;28;20633;-61
2021/10/04 03:38:53;;;;;;;1.57;0.63;;;;;;;;;;5118348;28;20225;-62
2021/10/04 03:41:21;;;;;;;0.77;0.40;;;;;;;;;;5118872;28;20683;-63
2021/10/04 03:43:50;;;;;;;1.20;0.63;;;;;;;;;;5118351;28;20815;-62
2021/10/04 03:46:18;;;;;;;1.60;0.60;;;;;;;;;;5118653;28;20210;-61
2021/10/04 03:48:46;;;;;;;0.50;0.40;;;;;;;;;;5118366;28;20741;-62
2021/10/04 03:51:14;;;;;;;2.70;0.67;;;;;;;;;;5118508;28;20239;-61
2021/10/04 03:53:42;;;;;;;0.93;0.60;;;;;;;;;;5118412;28;20651;-61
2021/10/04 03:56:12;;;;;;;0.73;0.53;;;;;;;;;;5118536;28;20230;-61
2021/10/04 03:58:40;;;;;;;2.77;0.83;;;;;;;;;;5117536;28;20228;-61
2021/10/04 04:01:10;;;;;;;0.37;0.37;;;;;;;;;;5118332;28;20215;-61
2021/10/04 04:03:39;;;;;;;1.20;0.70;;;;;;;;;;5118546;28;20232;-62
2021/10/04 04:06:07;;;;;;;1.43;0.70;;;;;;;;;;5118474;28;20208;-61
2021/10/04 04:08:35;;;;;;;0.90;0.70;;;;;;;;;;5118151;28;20642;-61
2021/10/04 04:11:04;;;;;;;0.93;0.47;;;;;;;;;;5118168;28;20204;-63
2021/10/04 04:13:33;;;;;;;0.63;0.63;;;;;;;;;;5117927;28;20204;-62
2021/10/04 04:16:01;;;;;;;0.57;0.57;;;;;;;;;;5118012;28;20208;-61
2021/10/04 04:18:29;;;;;;;0.67;0.50;;;;;;;;;;5117993;28;20232;-63
2021/10/04 04:20:57;;;;;;;1.03;0.93;;;;;;;;;;5120798;28;20210;-62
2021/10/04 04:23:25;;;;;;;0.50;0.50;;;;;;;;;;5122657;28;20215;-63
2021/10/04 04:25:53;;;;;;;1.00;0.70;;;;;;;;;;5122243;28;20288;-64
2021/10/04 04:28:21;;;;;;;1.17;0.50;;;;;;;;;;5122617;28;20201;-65
2021/10/04 04:30:51;;;;;;;0.90;0.80;;;;;;;;;;5121359;28;20201;-65
2021/10/04 04:33:19;;;;;;;1.50;0.70;;;;;;;;;;5119249;28;20569;-66
2021/10/04 04:35:47;;;;;;;0.70;0.70;;;;;;;;;;5122242;27;20235;-66
2021/10/04 04:38:15;;;;;;;1.33;0.77;;;;;;;;;;5123174;27;20224;-65
2021/10/04 04:40:43;;;;;;;0.80;0.70;;;;;;;;;;5121411;27;20197;-65
2021/10/04 04:43:11;;;;;;;0.80;0.80;;;;;;;;;;5121870;27;20284;-67
2021/10/04 04:45:39;;;;;;;1.23;1.10;;;;;;;;;;5121186;27;20227;-65
2021/10/04 04:48:09;;;;;;;1.47;1.00;;;;;;;;;;5123547;27;20200;-65
2021/10/04 04:50:37;;;;;;;0.83;0.83;;;;;;;;;;5121809;27;20232;-65
2021/10/04 04:53:05;;;;;;;1.93;0.90;;;;;;;;;;5121338;27;20203;-64
2021/10/04 04:55:33;;;;;;;0.50;0.50;;;;;;;;;;5140809;27;20228;-66
2021/10/04 04:58:01;;;;;;;0.97;0.60;;;;;;;;;;5142411;27;20299;-62
2021/10/04 05:00:29;;;;;;;1.70;1.60;;;;;;;;;;5140426;27;20219;-62
2021/10/04 05:02:57;;;;;;;0.77;0.50;;;;;;;;;;5112163;28;20237;-60
2021/10/04 05:05:27;;;;;;;1.87;0.80;;;;;;;;;;5108391;28;20260;-63
2021/10/04 05:07:55;;;;;;;1.20;1.20;;;;;;;;;;5109277;28;20201;-62
2021/10/04 05:10:23;;;;;;;1.33;1.17;;;;;;;;;;5101978;28;20198;-62
2021/10/04 05:12:51;;;;;;;1.60;1.30;;;;;;;;;;5108990;28;20208;-62
2021/10/04 05:15:19;;;;;;;3.00;1.13;;;;;;;;;;5106582;28;20221;-61
2021/10/04 05:17:47;;;;;;;1.20;1.20;;;;;;;;;;5109321;28;20204;-62
2021/10/04 05:20:15;;;;;;;0.90;0.87;;;;;;;;;;5115519;28;20303;-61
2021/10/04 05:22:44;;;;;;;0.70;0.70;;;;;;;;;;5121174;28;20205;-62
2021/10/04 05:25:13;;;;;;;0.80;0.80;;;;;;;;;;5121461;28;20216;-61
2021/10/04 05:27:41;;;;;;;1.40;0.80;;;;;;;;;;5117399;28;20201;-62
2021/10/04 05:30:09;;;;;;;1.00;0.90;;;;;;;;;;5120821;28;20288;-62
2021/10/04 05:32:38;;;;;;;0.80;0.80;;;;;;;;;;5119822;27;20207;-62
2021/10/04 05:35:06;;;;;;;1.03;0.80;;;;;;;;;;5121088;28;20231;-63
2021/10/04 05:37:34;;;;;;;1.30;1.20;;;;;;;;;;5120515;28;20205;-63
2021/10/04 05:40:05;;;;;;;2.30;0.87;;;;;;;;;;5109854;28;20224;-63
2021/10/04 05:42:33;;;;;;;1.27;1.03;;;;;;;;;;5107986;28;20578;-62
2021/10/04 05:45:02;;;;;;;1.33;1.23;;;;;;;;;;5106886;28;20252;-63
2021/10/04 05:47:30;;;;;;;1.13;1.10;;;;;;;;;;5108189;28;20204;-63
2021/10/04 05:49:58;;;;;;;1.20;1.10;;;;;;;;;;5111708;28;20231;-63
2021/10/04 05:52:26;;;;;;;0.90;0.80;;;;;;;;;;5108309;28;20201;-63
2021/10/04 05:54:54;;;;;;;0.73;0.73;;;;;;;;;;5107937;28;20597;-62
2021/10/04 05:57:23;;;;;;;1.33;1.20;;;;;;;;;;5107400;28;20204;-63
2021/10/04 05:59:51;;;;;;;1.43;1.20;;;;;;;;;;5120316;28;20228;-63
2021/10/04 06:02:19;;;;;;;1.60;0.97;;;;;;;;;;5120390;27;20232;-63
2021/10/04 06:04:47;;;;;;;2.27;1.37;;;;;;;;;;5117778;28;20578;-63
2021/10/04 06:07:15;;;;;;;1.20;1.10;;;;;;;;;;5118684;27;20204;-62
2021/10/04 06:09:43;;;;;;;1.30;1.20;;;;;;;;;;5135097;27;20939;-62
2021/10/04 06:12:11;;;;;;;1.53;1.30;;;;;;;;;;5120311;28;20221;-63
2021/10/04 06:14:41;;;;;;;1.87;1.03;;;;;;;;;;5119522;28;20236;-63
2021/10/04 06:17:09;;;;;;;2.50;1.10;;;;;;;;;;5119743;28;20719;-63
2021/10/04 06:19:37;;;;;;;4.77;3.03;;;;;;;;;;5119931;28;20229;-63
2021/10/04 06:22:05;;;;;;;2.87;1.30;;;;;;;;;;5112932;28;20209;-62
2021/10/04 06:24:33;;;;;;;2.77;1.63;;;;;;;;;;5130117;27;20250;-63
2021/10/04 06:27:01;;;;;;;1.53;1.40;;;;;;;;;;5116762;28;20205;-62
2021/10/04 06:29:28;;;;;;;1.80;1.40;;;;;;;;;;5107028;28;20201;-63
2021/10/04 06:31:58;;;;;;;3.50;1.40;;;;;;;;;;5101960;28;20232;-62
2021/10/04 06:34:26;;;;;;;2.97;1.30;;;;;;;;;;5105400;28;20217;-63
2021/10/04 06:36:54;;;;;;;1.60;1.30;;;;;;;;;;5114265;28;20204;-63
2021/10/04 06:39:22;;;;;;;2.57;1.50;;;;;;;;;;5119609;27;20312;-63
2021/10/04 06:41:50;;;;;;;2.47;1.30;;;;;;;;;;5109744;28;20557;-63
2021/10/04 06:44:18;;;;;;;2.40;1.70;;;;;;;;;;5106929;27;20311;-62
2021/10/04 06:47:00;;;;;;;4.27;1.80;;;;;;;;;;5114505;28;20197;-63
2021/10/04 06:49:31;;;;;;;2.70;1.63;;;;;;;;;;5119475;28;20227;-63
2021/10/04 06:51:59;;;;;;;1.97;1.57;;;;;;;;;;5119448;28;20237;-63
2021/10/04 06:54:27;;;;;;;7.63;4.63;;;;;;;;;;5119025;28;20235;-63
2021/10/04 06:56:55;;;;;;;4.17;2.30;;;;;;;;;;5119358;28;20211;-63
2021/10/04 06:59:23;;;;;;;2.00;1.80;;;;;;;;;;5119034;27;20252;-62
2021/10/04 07:01:51;;;;;;;2.50;1.60;;;;;;;;;;5139110;27;20249;-62
2021/10/04 07:04:20;;;;;;;2.17;1.33;;;;;;;;;;5139673;27;20232;-62
2021/10/04 07:06:49;;;;;;;2.27;1.77;;;;;;;;;;5139646;27;20215;-63
2021/10/04 07:09:16;;;;;;;2.13;1.83;;;;;;;;;;5139320;27;20701;-62
2021/10/04 07:11:45;;;;;;;2.00;1.60;;;;;;;;;;5139133;27;20699;-62
2021/10/04 07:14:13;;;;;;;3.30;1.60;;;;;;;;;;5139266;27;20309;-63
2021/10/04 07:16:41;;;;;;;3.13;1.67;;;;;;;;;;5139231;27;20291;-62
2021/10/04 07:19:09;;;;;;;3.40;1.70;;;;;;;;;;5139517;27;20215;-62
2021/10/04 07:21:38;;;;;;;3.27;1.67;;;;;;;;;;5139457;27;20298;-63
2021/10/04 07:24:07;;;;;;;3.97;1.67;;;;;;;;;;5139222;27;20232;-63
2021/10/04 07:26:36;;;;;;;2.63;1.83;;;;;;;;;;5115817;27;20196;-63
2021/10/04 07:29:04;;;;;;;3.23;1.80;;;;;;;;;;5139016;27;20226;-62
2021/10/04 07:31:32;;;;;;;4.77;2.53;;;;;;;;;;5138876;27;20207;-63
2021/10/04 07:34:04;;;;;;;4.13;2.30;;;;;;;;;;5138810;27;20699;-63
2021/10/04 07:36:32;;;;;;;3.87;2.30;;;;;;;;;;5139165;27;20212;-63
2021/10/04 07:39:02;;;;;;;3.43;2.60;;;;;;;;;;5139010;27;20208;-63
2021/10/04 07:41:30;;;;;;;4.23;2.17;;;;;;;;;;5138851;27;20228;-63
2021/10/04 07:43:58;;;;;;;2.97;1.70;;;;;;;;;;5138283;27;20710;-63
2021/10/04 07:46:26;;;;;;;4.43;2.90;;;;;;;;;;5138430;27;20595;-63
2021/10/04 07:48:55;;;;;;;2.43;2.20;;;;;;;;;;5138699;27;20251;-61
2021/10/04 07:51:23;;;;;;;3.60;2.47;;;;;;;;;;5117926;28;20703;-63
2021/10/04 07:53:51;;;;;;;4.37;2.60;;;;;;;;;;5118029;28;20225;-63
2021/10/04 07:56:21;;;;;;;3.00;2.00;;;;;;;;;;5117958;28;20212;-63
2021/10/04 07:58:49;;;;;;;2.50;2.10;;;;;;;;;;5109891;28;20207;-64
2021/10/04 08:01:17;;;;;;;2.30;2.10;;;;;;;;;;5113350;28;20217;-63
2021/10/04 08:03:46;;;;;;;2.17;1.97;;;;;;;;;;5126652;27;20293;-63
2021/10/04 08:06:14;;;;;;;2.63;1.70;;;;;;;;;;5116473;28;20203;-63
2021/10/04 08:08:42;;;;;;;2.27;1.70;;;;;;;;;;5118151;28;20252;-62
2021/10/04 08:11:11;;;;;;;2.27;1.70;;;;;;;;;;5115902;28;20242;-63
2021/10/04 08:13:42;;;;;;;4.27;2.00;;;;;;;;;;5117279;28;20204;-63
2021/10/04 08:16:10;;;;;;;1.90;1.63;;;;;;;;;;5118063;28;20205;-63
2021/10/04 08:18:38;;;;;;;2.83;1.80;;;;;;;;;;5117942;28;20200;-63
2021/10/04 08:21:06;;;;;;;3.23;2.03;;;;;;;;;;5138394;27;20261;-63
2021/10/04 08:23:37;;;;;;;4.63;3.00;;;;;;;;;;5138243;27;20207;-63
2021/10/04 08:26:05;;;;;;;48.37;27.20;;;;;;;;;;5115895;27;20295;-62
2021/10/04 08:28:33;;;;;;;12.47;7.77;;;;;;;;;;5133314;28;20214;-63
2021/10/04 08:31:03;;;;;;;3.17;2.37;;;;;;;;;;5137998;27;20287;-62
2021/10/04 08:33:31;;;;;;;1.70;1.60;;;;;;;;;;5138213;27;20302;-62
2021/10/04 08:35:59;;;;;;;1.67;1.50;;;;;;;;;;5138156;27;20595;-63
2021/10/04 08:38:27;;;;;;;1.93;1.63;;;;;;;;;;5138203;27;20288;-63
2021/10/04 08:40:56;;;;;;;1.50;1.40;;;;;;;;;;5138395;27;20349;-64
2021/10/04 08:43:24;;;;;;;3.07;2.10;;;;;;;;;;5102193;28;20208;-64
2021/10/04 08:45:54;;;;;;;1.97;1.57;;;;;;;;;;5105167;28;20289;-63
2021/10/04 08:48:24;;;;;;;2.87;1.40;;;;;;;;;;5105406;28;20231;-63
2021/10/04 08:50:52;;;;;;;1.63;1.27;;;;;;;;;;5105138;28;20603;-63
2021/10/04 08:53:19;;;;;;;1.37;1.20;;;;;;;;;;5105083;28;20202;-64
2021/10/04 08:55:47;;;;;;;1.73;1.40;;;;;;;;;;5105813;28;20311;-63
2021/10/04 08:58:15;;;;;;;1.60;1.50;;;;;;;;;;5103410;28;20193;-63
2021/10/04 09:00:44;;;;;;;2.60;1.90;;;;;;;;;;5103653;28;20240;-63
2021/10/04 09:03:13;;;;;;;2.23;1.93;;;;;;;;;;5103329;28;20728;-63
2021/10/04 09:05:45;;;;;;;1.80;1.60;;;;;;;;;;5105963;28;20218;-63
2021/10/04 09:08:15;;;;;;;1.50;1.40;;;;;;;;;;5108476;28;20207;-63
2021/10/04 09:10:44;;;;;;;2.77;1.47;;;;;;;;;;5109231;28;20664;-63
2021/10/04 09:13:15;;;;;;;4.40;3.13;;;;;;;;;;5116912;28;20637;-63
2021/10/04 09:15:44;;;;;;;1.03;1.00;;;;;;;;;;5109467;28;20299;-63
2021/10/04 09:18:19;;;;;;;1.70;1.60;;;;;;;;;;5107065;28;20202;-62
2021/10/04 09:20:50;;;;;;;1.80;1.70;;;;;;;;;;5110241;28;20312;-63
2021/10/04 09:23:32;;;;;;;1.27;1.17;;;;;;;;;;5101255;28;20284;-63
2021/10/04 09:26:03;;;;;;;2.83;1.90;;;;;;;;;;5107482;28;20207;-64
2021/10/04 09:28:33;;;;;;;3.43;1.70;;;;;;;;;;5108321;28;20201;-63
2021/10/04 09:31:16;;;;;;;1.77;1.67;;;;;;;;;;5102012;28;20661;-63
2021/10/04 09:34:14;;;;;;;1.97;1.43;;;;;;;;;;5114031;28;20204;-61
2021/10/04 09:36:44;;;;;;;1.53;1.27;;;;;;;;;;5066256;28;20233;-63
2021/10/04 09:39:30;;;;;;;1.47;1.37;;;;;;;;;;5111353;28;20240;-63
2021/10/04 09:42:09;;;;;;;1.67;1.43;;;;;;;;;;5120442;28;20225;-63
2021/10/04 09:44:45;;;;;;;1.07;0.97;;;;;;;;;;5120101;28;20260;-62
2021/10/04 09:47:14;;;;;;;2.97;1.63;;;;;;;;;;5120418;28;20236;-63
2021/10/04 09:50:03;;;;;;;1.43;1.33;;;;;;;;;;5111852;28;20225;-63
2021/10/04 09:52:40;;;;;;;1.37;1.20;;;;;;;;;;5102762;28;20695;-64
2021/10/04 09:55:21;;;;;;;1.67;1.20;;;;;;;;;;5108013;28;20738;-63
2021/10/04 09:58:03;;;;;;;2.13;1.30;;;;;;;;;;5107539;28;20200;-63
2021/10/04 10:00:35;;;;;;;1.83;1.73;;;;;;;;;;5106793;28;20307;-62
2021/10/04 10:03:04;;;;;;;1.73;1.63;;;;;;;;;;5105845;28;20223;-63
2021/10/04 10:05:33;;;;;;;2.20;1.87;;;;;;;;;;5118954;28;20224;-60
2021/10/04 10:08:02;;;;;;;2.27;1.83;;;;;;;;;;5119491;28;20209;-62
2021/10/04 10:10:36;;;;;;;5.40;2.30;;;;;;;;;;5114179;28;20197;-61
2021/10/04 10:13:05;;;;;;;1.90;1.77;;;;;;;;;;5107622;28;20197;-61
2021/10/04 10:15:34;;;;;;;4.13;2.27;;;;;;;;;;5106886;28;20221;-61
2021/10/04 10:18:07;;;;;;;2.20;2.00;;;;;;;;;;5104254;28;20231;-61
2021/10/04 10:20:36;;;;;;;2.17;1.97;;;;;;;;;;5104762;28;20202;-62
2021/10/04 10:23:05;;;;;;;2.60;2.00;;;;;;;;;;5107182;28;20320;-62
2021/10/04 10:25:35;;;;;;;2.73;2.10;;;;;;;;;;5109188;28;20248;-61
2021/10/04 10:28:04;;;;;;;2.07;1.87;;;;;;;;;;5116290;28;20246;-62
2021/10/04 10:30:33;;;;;;;2.23;2.00;;;;;;;;;;5105409;28;20603;-62
2021/10/04 10:33:01;;;;;;;4.67;2.20;;;;;;;;;;5106766;28;20225;-62
2021/10/04 10:35:49;;;;;;;2.70;2.50;;;;;;;;;;5104828;28;20217;-62
2021/10/04 10:38:39;;;;;;;5.23;2.30;;;;;;;;;;5106242;28;20258;-62
2021/10/04 10:41:17;;;;;;;2.10;1.80;;;;;;;;;;5112987;28;20273;-66
2021/10/04 10:44:00;;;;;;;2.03;1.83;;;;;;;;;;5118837;28;20572;-67
2021/10/04 10:46:44;;;;;;;2.03;1.93;;;;;;;;;;5106517;28;20690;-64
2021/10/04 10:49:12;;;;;;;1.90;1.80;;;;;;;;;;5119065;28;20248;-65
2021/10/04 10:51:55;;;;;;;1.70;1.60;;;;;;;;;;5118794;28;20700;-64
2021/10/04 10:54:40;;;;;;;2.43;1.90;;;;;;;;;;5119171;28;20256;-65
2021/10/04 10:57:08;;;;;;;2.23;1.83;;;;;;;;;;5119160;28;20283;-64
2021/10/04 10:59:36;;;;;;;2.43;1.97;;;;;;;;;;5118788;28;20236;-64
2021/10/04 11:02:04;;;;;;;2.00;1.90;;;;;;;;;;5118766;27;20661;-64
2021/10/04 11:04:39;;;;;;;2.40;2.20;;;;;;;;;;5118982;28;20592;-64
2021/10/04 11:07:07;;;;;;;2.10;1.97;;;;;;;;;;5118939;27;20204;-64
2021/10/04 11:09:52;;;;;;;2.10;2.00;;;;;;;;;;5118859;28;20287;-64
2021/10/04 11:12:22;;;;;;;2.70;2.00;;;;;;;;;;5118176;28;20284;-64
2021/10/04 11:14:56;;;;;;;1.70;1.43;;;;;;;;;;5118493;28;20263;-64
2021/10/04 11:17:24;;;;;;;1.80;1.53;;;;;;;;;;5118405;28;20212;-64
2021/10/04 11:19:52;;;;;;;2.70;2.07;;;;;;;;;;5118621;28;20288;-64
2021/10/04 11:22:22;;;;;;;2.43;2.23;;;;;;;;;;5118761;28;20225;-64
2021/10/04 11:24:58;;;;;;;2.70;1.83;;;;;;;;;;5118293;28;20248;-64
2021/10/04 11:27:27;;;;;;;3.17;2.00;;;;;;;;;;5128687;27;20730;-64
2021/10/04 11:30:02;;;;;;;2.13;1.90;;;;;;;;;;5138138;27;20240;-64
2021/10/04 11:32:30;;;;;;;3.20;2.10;;;;;;;;;;5133597;27;20637;-64
2021/10/04 11:35:10;;;;;;;3.30;1.80;;;;;;;;;;5118630;28;20284;-64
2021/10/04 11:37:38;;;;;;;2.50;1.60;;;;;;;;;;5118273;28;20727;-64
2021/10/04 11:40:07;;;;;;;2.47;2.07;;;;;;;;;;5118346;28;20743;-64
2021/10/04 11:42:36;;;;;;;4.40;2.03;;;;;;;;;;5118485;28;20424;-64
2021/10/04 11:45:09;;;;;;;4.10;1.70;;;;;;;;;;5117876;28;20791;-64
2021/10/04 11:47:40;;;;;;;2.83;1.67;;;;;;;;;;5118184;28;20287;-64
2021/10/04 11:50:12;;;;;;;4.60;2.37;;;;;;;;;;5117624;28;20291;-64
2021/10/04 11:52:40;;;;;;;4.53;2.20;;;;;;;;;;5118280;28;20288;-64
2021/10/04 11:55:10;;;;;;;4.10;2.07;;;;;;;;;;5117971;28;20225;-64
2021/10/04 11:57:41;;;;;;;2.20;1.90;;;;;;;;;;5118200;28;20257;-63
2021/10/04 12:00:11;;;;;;;1.80;1.70;;;;;;;;;;5117894;28;20231;-65
2021/10/04 12:02:40;;;;;;;2.37;2.17;;;;;;;;;;5117769;28;20248;-63
2021/10/04 12:05:13;;;;;;;4.57;1.80;;;;;;;;;;5117782;28;20233;-64
2021/10/04 12:07:55;;;;;;;1.77;1.67;;;;;;;;;;5117724;28;20684;-63
2021/10/04 12:10:26;;;;;;;1.60;1.50;;;;;;;;;;5118165;28;20208;-63
2021/10/04 12:12:55;;;;;;;2.60;2.07;;;;;;;;;;5118012;28;20668;-64
2021/10/04 12:15:27;;;;;;;3.20;1.50;;;;;;;;;;5117550;28;20308;-64
2021/10/04 12:17:55;;;;;;;2.30;1.30;;;;;;;;;;5118216;28;20227;-63
2021/10/04 12:20:24;;;;;;;1.40;1.30;;;;;;;;;;5118026;28;20284;-64
2021/10/04 12:22:52;;;;;;;3.23;1.93;;;;;;;;;;5117784;28;20279;-65
2021/10/04 12:25:27;;;;;;;3.13;1.40;;;;;;;;;;5117641;28;20285;-63
2021/10/04 12:28:03;;;;;;;2.57;1.20;;;;;;;;;;5117694;28;20228;-65
2021/10/04 12:30:41;;;;;;;2.23;1.37;;;;;;;;;;5117784;28;20200;-64
2021/10/04 12:33:09;;;;;;;1.27;1.17;;;;;;;;;;5124700;28;20275;-64
2021/10/04 12:35:38;;;;;;;1.70;1.50;;;;;;;;;;5116538;28;20266;-63
2021/10/04 12:38:10;;;;;;;1.87;1.37;;;;;;;;;;5117893;28;20213;-64
2021/10/04 12:40:43;;;;;;;2.57;1.37;;;;;;;;;;5118258;28;20307;-64
2021/10/04 12:43:14;;;;;;;2.03;1.57;;;;;;;;;;5121779;28;20260;-64
2021/10/04 12:45:53;;;;;;;1.53;1.43;;;;;;;;;;5121648;28;20661;-64
2021/10/04 12:48:21;;;;;;;1.50;1.40;;;;;;;;;;5121623;28;20601;-64
2021/10/04 12:50:50;;;;;;;2.00;1.73;;;;;;;;;;5121844;28;20319;-64
2021/10/04 12:53:19;;;;;;;1.43;1.30;;;;;;;;;;5122067;28;20235;-67
2021/10/04 12:55:49;;;;;;;1.30;1.10;;;;;;;;;;5121848;28;20252;-64
2021/10/04 12:58:18;;;;;;;4.47;1.83;;;;;;;;;;5121150;28;20295;-64
2021/10/04 13:00:46;;;;;;;2.20;1.40;;;;;;;;;;5121432;28;20626;-64
2021/10/04 13:03:15;;;;;;;2.10;1.13;;;;;;;;;;5121275;28;20594;-64
2021/10/04 13:05:43;;;;;;;2.63;1.50;;;;;;;;;;5121625;28;20267;-64
2021/10/04 13:08:11;;;;;;;1.00;0.90;;;;;;;;;;5121321;28;20752;-64
2021/10/04 13:10:39;;;;;;;1.53;1.43;;;;;;;;;;5121474;28;20200;-64
2021/10/04 13:13:07;;;;;;;1.67;1.57;;;;;;;;;;5120819;28;20288;-64
2021/10/04 13:15:37;;;;;;;0.97;0.77;;;;;;;;;;5121130;28;20648;-64
2021/10/04 13:18:05;;;;;;;2.90;1.00;;;;;;;;;;5121381;28;20232;-64
2021/10/04 13:20:33;;;;;;;2.63;0.83;;;;;;;;;;5121536;28;20243;-64
2021/10/04 13:23:01;;;;;;;1.03;0.73;;;;;;;;;;5120777;28;20256;-63
2021/10/04 13:25:30;;;;;;;1.33;0.80;;;;;;;;;;5121124;28;20285;-63
2021/10/04 13:27:58;;;;;;;1.27;1.17;;;;;;;;;;5121109;28;20243;-64
2021/10/04 13:30:26;;;;;;;3.17;1.13;;;;;;;;;;5121079;28;20236;-64
2021/10/04 13:32:55;;;;;;;1.30;1.20;;;;;;;;;;5121199;28;20229;-63
2021/10/04 13:35:23;;;;;;;0.90;0.90;;;;;;;;;;5121053;28;20312;-64
2021/10/04 13:37:51;;;;;;;1.83;1.30;;;;;;;;;;5121094;28;20287;-64
2021/10/04 13:40:19;;;;;;;0.80;0.80;;;;;;;;;;5120775;28;20243;-64
2021/10/04 13:42:47;;;;;;;1.37;1.20;;;;;;;;;;5120819;28;20248;-64
2021/10/04 13:45:16;;;;;;;2.43;1.40;;;;;;;;;;5120211;28;20366;-64
2021/10/04 13:47:44;;;;;;;1.80;1.63;;;;;;;;;;5120744;28;20240;-64
2021/10/04 13:50:13;;;;;;;3.90;1.67;;;;;;;;;;5120463;28;20260;-64
2021/10/04 13:52:41;;;;;;;2.93;1.33;;;;;;;;;;5119669;28;20687;-64
2021/10/04 13:55:10;;;;;;;1.40;1.30;;;;;;;;;;5120327;28;20220;-64
2021/10/04 13:57:38;;;;;;;1.70;1.60;;;;;;;;;;5120760;28;20236;-63
2021/10/04 14:00:08;;;;;;;1.40;1.30;;;;;;;;;;5120379;28;20269;-64
2021/10/04 14:02:37;;;;;;;2.87;1.40;;;;;;;;;;5120538;28;20243;-63
2021/10/04 14:05:06;;;;;;;1.60;1.50;;;;;;;;;;5120194;28;20235;-66
2021/10/04 14:07:35;;;;;;;1.53;1.43;;;;;;;;;;5120456;28;20638;-63
2021/10/04 14:10:04;;;;;;;1.70;1.60;;;;;;;;;;5120263;28;20240;-65
2021/10/04 14:12:32;;;;;;;3.67;1.50;;;;;;;;;;5120252;28;20214;-64
2021/10/04 14:15:01;;;;;;;2.77;1.37;;;;;;;;;;5119931;28;20323;-65
2021/10/04 14:17:29;;;;;;;1.93;1.30;;;;;;;;;;5120093;28;20205;-64
2021/10/04 14:19:57;;;;;;;2.60;1.40;;;;;;;;;;5120531;28;20224;-64
2021/10/04 14:22:25;;;;;;;2.60;1.77;;;;;;;;;;5119953;28;20205;-65
2021/10/04 14:24:54;;;;;;;2.33;1.83;;;;;;;;;;5119530;28;20327;-63
2021/10/04 14:27:22;;;;;;;2.50;1.40;;;;;;;;;;5119687;28;20284;-63
2021/10/04 14:29:50;;;;;;;2.03;1.60;;;;;;;;;;5119262;28;20283;-63
2021/10/04 14:32:18;;;;;;;3.23;1.50;;;;;;;;;;5119498;28;20233;-65
2021/10/04 14:34:46;;;;;;;2.53;1.60;;;;;;;;;;5116381;28;20312;-65
2021/10/04 14:37:14;;;;;;;1.47;1.33;;;;;;;;;;5117986;28;20284;-65
2021/10/04 14:39:43;;;;;;;1.50;1.40;;;;;;;;;;5119153;28;20205;-64
2021/10/04 14:42:12;;;;;;;1.70;1.20;;;;;;;;;;5119657;28;20236;-64
2021/10/04 14:44:40;;;;;;;2.53;1.60;;;;;;;;;;5119374;28;20260;-64
2021/10/04 14:47:08;;;;;;;2.53;1.80;;;;;;;;;;5119482;28;20236;-65
2021/10/04 14:49:36;;;;;;;5.00;2.57;;;;;;;;;;5119658;28;20232;-64
2021/10/04 14:52:04;;;;;;;2.33;1.80;;;;;;;;;;5119461;27;20287;-65
2021/10/04 14:54:33;;;;;;;2.07;1.73;;;;;;;;;;5118980;28;20247;-64
2021/10/04 14:57:01;;;;;;;2.30;1.80;;;;;;;;;;5119504;28;20243;-64